Time;durP1;ratioP1;P1;durP2;ratioP2;P2;SDS_P1;SDS_P2;PMS_P1;PMS_P2;Temp;Humidity;BMP_temperature;BMP_pressure;BME280_temperature;BME280_humidity;BME280_pressure;Samples;Min_cycle;Max_cycle;Signal;HPM_P1;HPM_P2
2023/05/04 00:01:27;;;;;;;0.90;0.90;;;;;;;22.21;27.58;101395.00;4550338;28;20580;-63
2023/05/04 00:03:38;;;;;;;1.02;0.88;;;;;;;22.23;27.52;101393.81;4548537;28;20514;-63
2023/05/04 00:05:48;;;;;;;1.30;0.98;;;;;;;22.23;27.34;101390.94;4537924;28;20069;-64
2023/05/04 00:07:58;;;;;;;1.00;0.90;;;;;;;22.23;27.60;101396.69;4548278;28;20141;-63
2023/05/04 00:10:09;;;;;;;0.80;0.80;;;;;;;22.21;27.99;101391.31;4549363;28;20072;-63
2023/05/04 00:12:20;;;;;;;1.27;0.90;;;;;;;22.23;27.55;101396.69;4548932;28;20044;-63
2023/05/04 00:14:30;;;;;;;1.05;0.90;;;;;;;22.22;27.70;101384.34;4531083;28;20037;-63
2023/05/04 00:16:41;;;;;;;1.00;0.90;;;;;;;22.23;27.92;101376.56;4550903;28;20126;-63
2023/05/04 00:18:51;;;;;;;0.80;0.80;;;;;;;22.21;27.84;101376.94;4549583;28;20089;-63
2023/05/04 00:21:01;;;;;;;1.48;1.00;;;;;;;22.23;27.49;101380.31;4548996;28;20024;-63
2023/05/04 00:23:12;;;;;;;0.98;0.80;;;;;;;22.23;27.78;101369.63;4548328;28;20036;-64
2023/05/04 00:25:22;;;;;;;1.13;0.90;;;;;;;22.15;27.55;101359.06;4530322;28;20483;-63
2023/05/04 00:27:34;;;;;;;1.80;1.13;;;;;;;22.19;27.65;101368.66;4549199;28;20092;-64
2023/05/04 00:29:44;;;;;;;0.80;0.80;;;;;;;22.21;27.40;101372.00;4549768;28;20666;-63
2023/05/04 00:31:54;;;;;;;1.10;0.70;;;;;;;22.17;27.93;101371.06;4549085;28;20431;-63
2023/05/04 00:34:05;;;;;;;1.10;0.88;;;;;;;22.19;28.28;101367.81;4548598;27;20024;-63
2023/05/04 00:36:15;;;;;;;1.05;0.93;;;;;;;22.18;27.73;101361.22;4539081;28;20767;-63
2023/05/04 00:38:26;;;;;;;0.80;0.80;;;;;;;22.20;27.66;101367.47;4548583;28;20033;-63
2023/05/04 00:40:36;;;;;;;1.00;0.77;;;;;;;22.06;27.52;101346.00;4549880;28;20033;-63
2023/05/04 00:42:47;;;;;;;1.13;0.88;;;;;;;22.19;27.67;101357.16;4549533;28;20032;-63
2023/05/04 00:44:57;;;;;;;1.38;0.88;;;;;;;22.15;27.37;101361.94;4533583;28;20110;-63
2023/05/04 00:47:08;;;;;;;0.70;0.70;;;;;;;22.19;27.77;101362.91;4547754;28;20094;-63
2023/05/04 00:49:20;;;;;;;0.80;0.77;;;;;;;22.18;27.57;101355.47;4549325;28;20032;-63
2023/05/04 00:51:31;;;;;;;0.75;0.70;;;;;;;22.15;27.94;101346.75;4536338;28;20548;-63
2023/05/04 00:53:42;;;;;;;0.80;0.80;;;;;;;22.14;27.91;101348.78;4547812;28;20550;-62
2023/05/04 00:55:52;;;;;;;0.80;0.80;;;;;;;22.15;27.75;101349.63;4530430;28;20049;-63
2023/05/04 00:58:04;;;;;;;0.70;0.70;;;;;;;22.13;27.52;101341.38;4521782;28;20033;-63
2023/05/04 01:00:16;;;;;;;1.00;0.90;;;;;;;22.17;27.83;101344.31;4549187;28;20175;-63
2023/05/04 01:02:26;;;;;;;0.80;0.80;;;;;;;22.03;27.69;101317.97;4532693;28;20539;-62
2023/05/04 01:04:37;;;;;;;0.70;0.70;;;;;;;22.10;27.48;101324.81;4546888;28;20081;-62
2023/05/04 01:07:02;;;;;;;0.75;0.75;;;;;;;22.15;27.66;101332.38;4548694;28;20506;-62
2023/05/04 01:09:40;;;;;;;0.70;0.70;;;;;;;22.15;27.97;101330.31;4529895;28;20071;-62
2023/05/04 01:12:06;;;;;;;1.00;0.90;;;;;;;22.15;27.80;101327.44;4548293;28;20040;-63
2023/05/04 01:14:19;;;;;;;0.73;0.70;;;;;;;22.15;28.09;101326.63;4531340;28;20037;-63
2023/05/04 01:16:30;;;;;;;1.20;0.75;;;;;;;22.14;27.73;101317.16;4549386;28;20590;-63
2023/05/04 01:18:40;;;;;;;0.70;0.70;;;;;;;22.13;27.75;101324.13;4549033;28;20028;-63
2023/05/04 01:20:50;;;;;;;1.10;0.90;;;;;;;22.11;28.05;101317.88;4547886;28;20029;-62
2023/05/04 01:23:02;;;;;;;1.00;0.90;;;;;;;22.14;28.19;101320.03;4532570;28;20033;-62
2023/05/04 01:25:13;;;;;;;0.90;0.80;;;;;;;22.12;27.96;101316.66;4530396;28;20037;-62
2023/05/04 01:27:36;;;;;;;0.93;0.93;;;;;;;22.12;27.99;101308.03;4534553;28;20036;-62
2023/05/04 01:29:54;;;;;;;0.98;0.80;;;;;;;22.11;28.12;101315.00;4531060;28;20084;-62
2023/05/04 01:32:07;;;;;;;1.25;0.90;;;;;;;22.07;27.77;101302.53;4548620;28;20029;-63
2023/05/04 01:34:17;;;;;;;1.08;0.90;;;;;;;22.10;27.67;101307.56;4548723;28;20029;-62
2023/05/04 01:36:28;;;;;;;0.75;0.70;;;;;;;22.05;27.98;101304.09;4532104;28;20296;-63
2023/05/04 01:38:41;;;;;;;0.82;0.80;;;;;;;22.09;28.15;101305.88;4532426;28;20037;-63
2023/05/04 01:40:51;;;;;;;0.88;0.70;;;;;;;22.04;27.83;101296.69;4547673;28;20611;-63
2023/05/04 01:43:01;;;;;;;1.52;0.90;;;;;;;22.10;27.70;101306.72;4533707;28;20135;-63
2023/05/04 01:45:12;;;;;;;0.70;0.70;;;;;;;22.12;28.04;101310.91;4514830;28;20038;-63
2023/05/04 01:47:22;;;;;;;1.20;0.80;;;;;;;22.06;27.98;101306.59;4538553;28;20231;-63
2023/05/04 01:49:33;;;;;;;0.70;0.70;;;;;;;22.05;28.47;101304.94;4546975;28;20059;-63
2023/05/04 01:51:45;;;;;;;1.08;0.80;;;;;;;22.09;27.78;101311.63;4530105;28;20076;-63
2023/05/04 01:53:56;;;;;;;0.80;0.80;;;;;;;22.07;28.18;101305.41;4546000;28;20021;-63
2023/05/04 01:56:06;;;;;;;0.90;0.90;;;;;;;22.07;27.98;101313.22;4520187;28;20041;-63
2023/05/04 01:58:18;;;;;;;1.10;0.90;;;;;;;21.93;27.69;101284.81;4535748;28;21325;-63
2023/05/04 02:00:28;;;;;;;0.73;0.73;;;;;;;22.06;27.76;101312.34;4545225;28;20036;-63
2023/05/04 02:02:39;;;;;;;1.45;0.93;;;;;;;22.04;27.99;101314.75;4549057;28;20068;-63
2023/05/04 02:04:49;;;;;;;1.92;0.85;;;;;;;22.04;27.83;101311.88;4532683;28;20166;-63
2023/05/04 02:07:00;;;;;;;0.80;0.80;;;;;;;22.02;27.66;101311.38;4530608;28;20977;-63
2023/05/04 02:09:10;;;;;;;0.80;0.80;;;;;;;22.03;27.77;101301.59;4530232;28;20543;-63
2023/05/04 02:11:21;;;;;;;1.23;0.80;;;;;;;22.05;27.98;101306.97;4529357;28;20302;-63
2023/05/04 02:13:31;;;;;;;0.73;0.73;;;;;;;22.03;27.92;101310.22;4518957;28;20439;-63
2023/05/04 02:15:42;;;;;;;1.05;0.90;;;;;;;22.04;28.16;101306.13;4533987;28;20040;-65
2023/05/04 02:17:52;;;;;;;0.93;0.70;;;;;;;22.02;27.92;101305.63;4548671;28;20670;-63
2023/05/04 02:20:03;;;;;;;0.93;0.75;;;;;;;22.00;27.94;101295.72;4528855;28;20033;-63
2023/05/04 02:22:15;;;;;;;1.00;0.70;;;;;;;22.01;28.15;101300.25;4519899;28;20076;-63
2023/05/04 02:24:25;;;;;;;1.05;0.73;;;;;;;22.00;27.98;101296.56;4530175;28;20040;-66
2023/05/04 02:26:35;;;;;;;0.82;0.80;;;;;;;22.02;28.19;101305.63;4547122;28;20045;-63
2023/05/04 02:28:46;;;;;;;0.80;0.70;;;;;;;21.99;28.16;101294.88;4522115;28;20033;-63
2023/05/04 02:30:56;;;;;;;0.70;0.70;;;;;;;22.00;28.28;101296.56;4548069;28;20025;-63
2023/05/04 02:33:07;;;;;;;0.98;0.80;;;;;;;22.00;28.35;101290.81;4531511;28;20039;-63
2023/05/04 02:35:18;;;;;;;1.77;0.98;;;;;;;22.01;28.11;101303.13;4547661;28;20024;-63
2023/05/04 02:37:28;;;;;;;0.82;0.77;;;;;;;22.01;28.58;101301.09;4546791;28;20037;-63
2023/05/04 02:39:39;;;;;;;1.02;0.70;;;;;;;22.00;28.19;101295.72;4549902;28;20025;-63
2023/05/04 02:41:49;;;;;;;0.80;0.80;;;;;;;21.99;28.11;101299.78;4550455;28;20072;-63
2023/05/04 02:43:59;;;;;;;1.02;0.90;;;;;;;21.99;27.95;101300.63;4548550;28;20075;-63
2023/05/04 02:46:10;;;;;;;1.23;0.77;;;;;;;21.97;28.37;101291.53;4531027;28;20649;-63
2023/05/04 02:48:20;;;;;;;1.10;0.70;;;;;;;21.98;27.87;101298.94;4551741;28;20040;-63
2023/05/04 02:50:31;;;;;;;1.10;0.80;;;;;;;21.95;27.89;101288.16;4550514;28;20025;-63
2023/05/04 02:52:41;;;;;;;0.98;0.88;;;;;;;21.96;27.68;101301.34;4537540;28;20520;-63
2023/05/04 02:54:52;;;;;;;0.70;0.70;;;;;;;21.96;27.63;101289.03;4531938;28;20041;-63
2023/05/04 02:57:03;;;;;;;1.02;0.70;;;;;;;21.96;27.95;101294.78;4524528;28;20275;-63
2023/05/04 02:59:13;;;;;;;0.85;0.70;;;;;;;21.95;27.75;101293.91;4550549;28;20142;-63
2023/05/04 03:01:24;;;;;;;0.70;0.70;;;;;;;21.94;27.37;101289.38;4551813;28;20041;-63
2023/05/04 03:03:34;;;;;;;0.75;0.75;;;;;;;21.93;27.38;101278.22;4551100;28;20064;-63
2023/05/04 03:05:45;;;;;;;1.00;0.80;;;;;;;21.93;27.76;101287.69;4535504;28;20032;-62
2023/05/04 03:07:55;;;;;;;1.02;0.73;;;;;;;21.95;27.64;101288.16;4552073;28;20074;-63
2023/05/04 03:10:08;;;;;;;0.93;0.80;;;;;;;21.78;27.63;101253.94;4538455;28;20035;-62
2023/05/04 03:12:18;;;;;;;1.33;0.75;;;;;;;21.94;27.52;101280.75;4550163;28;20028;-63
2023/05/04 03:14:30;;;;;;;0.93;0.82;;;;;;;21.93;27.85;101272.47;4551501;28;20488;-63
2023/05/04 03:16:40;;;;;;;0.80;0.80;;;;;;;21.94;28.03;101272.13;4551843;28;20037;-63
2023/05/04 03:18:51;;;;;;;0.80;0.80;;;;;;;21.90;27.70;101271.16;4553073;28;20757;-63
2023/05/04 03:21:01;;;;;;;0.80;0.80;;;;;;;21.93;27.89;101279.06;4536493;28;20035;-63
2023/05/04 03:23:12;;;;;;;1.00;0.90;;;;;;;21.92;27.76;101274.53;4548465;28;20037;-63
2023/05/04 03:25:22;;;;;;;1.00;0.90;;;;;;;21.87;28.07;101262.41;4547294;28;20108;-62
2023/05/04 03:27:33;;;;;;;1.23;0.90;;;;;;;21.90;28.05;101265.41;4548477;28;20072;-63
2023/05/04 03:29:44;;;;;;;0.80;0.80;;;;;;;21.90;28.33;101262.53;4549299;28;20615;-63
2023/05/04 03:31:55;;;;;;;0.95;0.80;;;;;;;21.86;28.14;101252.97;4532219;28;20553;-63
2023/05/04 03:34:05;;;;;;;0.82;0.80;;;;;;;21.77;28.07;101239.94;4531434;28;20043;-62
2023/05/04 03:36:16;;;;;;;1.08;0.82;;;;;;;21.89;28.18;101255.13;4532683;28;20036;-63
2023/05/04 03:38:27;;;;;;;0.90;0.90;;;;;;;21.87;28.00;101250.91;4549557;28;20515;-63
2023/05/04 03:40:38;;;;;;;1.00;0.80;;;;;;;21.87;28.39;101257.50;4535878;28;20133;-63
2023/05/04 03:42:53;;;;;;;0.70;0.68;;;;;;;21.90;27.96;101250.19;4549075;28;20042;-62
2023/05/04 03:45:04;;;;;;;1.05;0.77;;;;;;;21.86;28.31;101250.09;4539085;28;20036;-62
2023/05/04 03:47:15;;;;;;;1.42;0.90;;;;;;;21.87;28.02;101251.78;4552066;28;20032;-62
2023/05/04 03:49:26;;;;;;;1.00;0.90;;;;;;;21.88;28.14;101259.19;4537065;28;20029;-62
2023/05/04 03:51:36;;;;;;;0.90;0.90;;;;;;;21.86;28.17;101252.97;4533634;28;20340;-62
2023/05/04 03:53:47;;;;;;;1.10;0.82;;;;;;;21.85;28.47;101256.22;4550092;28;20036;-63
2023/05/04 03:56:00;;;;;;;0.60;0.60;;;;;;;21.84;27.87;101246.75;4535791;28;20771;-63
2023/05/04 03:58:11;;;;;;;0.95;0.70;;;;;;;21.87;28.26;101253.78;4548850;28;20542;-62
2023/05/04 04:00:21;;;;;;;0.70;0.70;;;;;;;21.86;28.04;101244.34;4547885;28;20032;-63
2023/05/04 04:02:40;;;;;;;1.08;0.80;;;;;;;21.85;28.03;101233.22;4550814;28;20140;-63
2023/05/04 04:04:51;;;;;;;1.10;0.75;;;;;;;21.84;28.10;101238.13;4535873;28;20653;-63
2023/05/04 04:07:02;;;;;;;0.88;0.73;;;;;;;21.86;28.03;101235.75;4532945;28;21404;-63
2023/05/04 04:09:14;;;;;;;1.00;0.90;;;;;;;21.85;27.88;101231.16;4533585;28;20091;-63
2023/05/04 04:11:25;;;;;;;0.98;0.90;;;;;;;21.78;28.06;101230.09;4550942;28;20149;-62
2023/05/04 04:13:35;;;;;;;1.20;0.73;;;;;;;21.84;28.35;101238.13;4534942;28;20029;-63
2023/05/04 04:15:46;;;;;;;0.98;0.80;;;;;;;21.82;28.44;101231.88;4550084;28;20492;-63
2023/05/04 04:17:56;;;;;;;0.90;0.70;;;;;;;21.69;28.54;101212.94;4550747;28;20035;-63
2023/05/04 04:20:07;;;;;;;1.02;0.80;;;;;;;21.83;28.26;101230.72;4548269;28;20065;-62
2023/05/04 04:22:18;;;;;;;0.82;0.82;;;;;;;21.83;28.33;101232.75;4549495;28;20025;-62
2023/05/04 04:24:28;;;;;;;0.70;0.70;;;;;;;21.82;28.38;101237.63;4522380;28;20040;-62
2023/05/04 04:26:39;;;;;;;0.88;0.77;;;;;;;21.82;28.66;101231.88;4550579;28;20041;-62
2023/05/04 04:28:49;;;;;;;0.90;0.88;;;;;;;21.73;28.78;101216.78;4549178;28;20043;-61
2023/05/04 04:31:00;;;;;;;1.00;0.90;;;;;;;21.82;28.48;101225.28;4534505;28;20369;-63
2023/05/04 04:33:11;;;;;;;1.08;0.88;;;;;;;21.80;28.80;101228.53;4548349;28;20036;-63
2023/05/04 04:35:22;;;;;;;1.23;0.90;;;;;;;21.82;28.92;101229.00;4533934;28;20039;-63
2023/05/04 04:37:32;;;;;;;1.42;0.82;;;;;;;21.80;28.79;101228.53;4548797;28;20017;-63
2023/05/04 04:39:43;;;;;;;0.80;0.80;;;;;;;21.81;28.47;101235.97;4537256;28;20033;-63
2023/05/04 04:41:53;;;;;;;1.00;0.90;;;;;;;21.81;28.87;101229.38;4548078;28;20119;-63
2023/05/04 04:44:04;;;;;;;1.17;0.98;;;;;;;21.81;28.78;101232.25;4548539;28;20624;-63
2023/05/04 04:46:14;;;;;;;1.67;1.10;;;;;;;21.78;29.02;101235.84;4548559;28;20075;-63
2023/05/04 04:48:25;;;;;;;1.25;1.08;;;;;;;21.68;28.60;101225.66;4550863;28;20028;-63
2023/05/04 04:50:39;;;;;;;1.13;0.93;;;;;;;21.78;28.92;101235.84;4550141;28;20051;-63
2023/05/04 04:52:49;;;;;;;1.15;1.05;;;;;;;21.77;28.60;101235.00;4548732;28;20170;-63
2023/05/04 04:55:00;;;;;;;1.45;1.00;;;;;;;21.78;28.86;101236.69;4549119;28;20147;-63
2023/05/04 04:57:10;;;;;;;0.80;0.80;;;;;;;21.76;28.92;101236.22;4547780;28;20116;-63
2023/05/04 04:59:23;;;;;;;0.82;0.80;;;;;;;21.78;29.49;101236.69;4549261;28;20037;-63
2023/05/04 05:01:34;;;;;;;1.38;1.10;;;;;;;21.77;29.22;101234.19;4547117;28;20043;-63
2023/05/04 05:03:44;;;;;;;0.90;0.90;;;;;;;21.77;29.41;101237.06;4549232;27;20051;-63
2023/05/04 05:05:55;;;;;;;1.42;0.90;;;;;;;21.76;29.79;101226.75;4548912;28;20036;-63
2023/05/04 05:08:05;;;;;;;0.90;0.80;;;;;;;21.74;29.50;101229.94;4547682;28;20144;-63
2023/05/04 05:10:16;;;;;;;1.45;0.90;;;;;;;21.62;29.54;101198.34;4549116;28;20025;-63
2023/05/04 05:12:26;;;;;;;0.80;0.80;;;;;;;21.77;29.71;101223.50;4549137;28;20036;-63
2023/05/04 05:14:37;;;;;;;0.80;0.80;;;;;;;21.75;30.30;101225.94;4517027;28;20056;-63
2023/05/04 05:16:47;;;;;;;1.00;0.90;;;;;;;21.73;29.99;101222.53;4507339;28;20118;-63
2023/05/04 05:18:58;;;;;;;1.77;0.88;;;;;;;21.74;30.00;101232.00;4550282;28;20057;-63
2023/05/04 05:21:09;;;;;;;1.10;1.00;;;;;;;21.75;30.50;101234.53;4549230;28;20060;-63
2023/05/04 05:23:19;;;;;;;1.25;1.00;;;;;;;21.73;30.42;101228.28;4534008;28;20031;-63
2023/05/04 05:25:30;;;;;;;0.90;0.90;;;;;;;21.72;30.46;101232.34;4551242;28;20500;-63
2023/05/04 05:27:41;;;;;;;1.17;0.82;;;;;;;21.75;30.37;101242.28;4550442;28;20045;-62
2023/05/04 05:29:51;;;;;;;1.42;1.10;;;;;;;21.71;30.55;101242.16;4551214;28;20037;-63
2023/05/04 05:32:03;;;;;;;0.90;0.90;;;;;;;21.72;30.84;101240.13;4551516;28;20660;-63
2023/05/04 05:34:13;;;;;;;1.00;1.00;;;;;;;21.70;30.96;101231.88;4549791;28;20040;-63
2023/05/04 05:36:24;;;;;;;1.10;1.00;;;;;;;21.57;30.66;101209.25;4550185;28;20065;-63
2023/05/04 05:38:34;;;;;;;1.30;1.00;;;;;;;21.73;30.98;101238.94;4549193;28;20037;-62
2023/05/04 05:40:44;;;;;;;0.95;0.93;;;;;;;21.72;31.02;101235.19;4531141;28;20099;-62
2023/05/04 05:42:55;;;;;;;1.35;1.20;;;;;;;21.72;30.64;101237.25;4550829;28;20454;-60
2023/05/04 05:45:06;;;;;;;1.13;1.02;;;;;;;21.72;31.12;101234.38;4550935;28;20522;-62
2023/05/04 05:47:17;;;;;;;1.20;1.10;;;;;;;21.72;30.99;101231.50;4549674;28;20576;-63
2023/05/04 05:49:27;;;;;;;1.00;0.90;;;;;;;21.72;31.63;101231.50;4549165;28;20556;-62
2023/05/04 05:51:38;;;;;;;1.10;1.00;;;;;;;21.67;31.48;101229.72;4549957;28;20068;-62
2023/05/04 05:53:48;;;;;;;1.33;1.10;;;;;;;21.70;31.11;101231.88;4550060;28;20048;-62
2023/05/04 05:55:58;;;;;;;1.25;0.95;;;;;;;21.69;31.01;101230.19;4533982;28;20486;-62
2023/05/04 05:58:09;;;;;;;1.23;1.00;;;;;;;21.69;31.49;101235.94;4547956;28;20090;-62
2023/05/04 06:00:20;;;;;;;1.50;1.00;;;;;;;21.64;31.37;101221.81;4549527;28;20121;-62
2023/05/04 06:02:30;;;;;;;1.00;1.00;;;;;;;21.69;31.41;101232.25;4550698;28;20494;-62
2023/05/04 06:04:41;;;;;;;1.10;1.00;;;;;;;21.65;31.42;101220.63;4551130;28;20028;-63
2023/05/04 06:06:52;;;;;;;1.40;1.10;;;;;;;21.65;31.36;101219.78;4523104;28;20849;-63
2023/05/04 06:09:02;;;;;;;0.88;0.80;;;;;;;21.66;31.73;101227.22;4550894;28;20028;-64
2023/05/04 06:11:16;;;;;;;1.13;1.02;;;;;;;21.66;31.82;101222.28;4552127;28;20032;-63
2023/05/04 06:13:26;;;;;;;1.23;1.10;;;;;;;21.64;31.71;101218.09;4543055;28;20215;-63
2023/05/04 06:15:37;;;;;;;1.35;1.05;;;;;;;21.67;31.46;101226.84;4553646;28;20029;-63
2023/05/04 06:17:48;;;;;;;1.20;1.02;;;;;;;21.64;31.74;101207.47;4552667;28;20080;-63
2023/05/04 06:19:59;;;;;;;2.03;1.10;;;;;;;21.67;31.98;101218.22;4553245;28;20020;-63
2023/05/04 06:22:09;;;;;;;1.20;1.10;;;;;;;21.66;31.79;101222.28;4553448;28;20456;-63
2023/05/04 06:24:21;;;;;;;1.08;0.98;;;;;;;21.66;31.86;101219.41;4537699;28;20524;-64
2023/05/04 06:26:31;;;;;;;1.05;0.90;;;;;;;21.66;31.74;101210.78;4551803;28;20475;-63
2023/05/04 06:28:42;;;;;;;1.10;1.00;;;;;;;21.67;32.17;101205.91;4553014;28;20033;-64
2023/05/04 06:30:52;;;;;;;1.27;0.95;;;;;;;21.65;31.74;101209.13;4535703;28;20143;-63
2023/05/04 06:33:03;;;;;;;1.83;1.10;;;;;;;21.66;31.69;101205.03;4552412;28;20024;-63
2023/05/04 06:35:13;;;;;;;1.52;1.17;;;;;;;21.65;31.70;101214.88;4551320;28;20044;-64
2023/05/04 06:37:25;;;;;;;1.42;1.10;;;;;;;21.65;31.98;101206.25;4551764;28;20036;-64
2023/05/04 06:39:35;;;;;;;1.50;1.17;;;;;;;21.64;32.01;101207.47;4554076;28;20389;-65
2023/05/04 06:41:46;;;;;;;2.45;1.20;;;;;;;21.62;32.34;101209.84;4556839;28;20108;-64
2023/05/04 06:43:56;;;;;;;1.70;1.20;;;;;;;21.67;32.41;101203.88;4552203;28;20158;-64
2023/05/04 06:46:07;;;;;;;1.25;1.02;;;;;;;21.65;32.03;101203.38;4551806;28;20426;-63
2023/05/04 06:48:17;;;;;;;1.70;1.10;;;;;;;21.64;32.66;101195.13;4552363;28;20041;-64
2023/05/04 06:50:28;;;;;;;1.33;1.13;;;;;;;21.62;32.14;101192.63;4555955;28;20063;-63
2023/05/04 06:52:43;;;;;;;1.30;1.20;;;;;;;21.61;32.31;101196.66;4552984;28;20587;-63
2023/05/04 06:54:54;;;;;;;1.05;0.95;;;;;;;21.65;32.35;101194.75;4552171;28;21208;-62
2023/05/04 06:57:04;;;;;;;1.13;1.00;;;;;;;21.64;32.46;101195.13;4551958;28;20041;-62
2023/05/04 06:59:15;;;;;;;1.63;1.10;;;;;;;21.66;32.44;101201.34;4543398;28;20040;-62
2023/05/04 07:01:26;;;;;;;1.17;1.08;;;;;;;21.58;32.52;101191.66;4555153;28;20118;-63
2023/05/04 07:03:37;;;;;;;1.45;1.10;;;;;;;21.64;32.63;101193.09;4555434;28;20122;-62
2023/05/04 07:05:49;;;;;;;1.17;1.08;;;;;;;21.63;32.42;101193.44;4554181;28;20563;-63
2023/05/04 07:08:00;;;;;;;1.02;1.00;;;;;;;21.61;32.68;101195.84;4555495;28;20044;-63
2023/05/04 07:10:11;;;;;;;1.13;1.02;;;;;;;21.63;33.03;101191.41;4553278;28;20029;-63
2023/05/04 07:12:21;;;;;;;1.80;1.08;;;;;;;21.62;33.25;101188.91;4554578;28;20033;-62
2023/05/04 07:14:32;;;;;;;0.80;0.80;;;;;;;21.59;33.08;101181.84;4552815;28;20040;-62
2023/05/04 07:16:42;;;;;;;1.25;1.15;;;;;;;21.64;33.66;101192.25;4553681;28;20020;-62
2023/05/04 07:18:53;;;;;;;1.00;0.93;;;;;;;21.62;33.27;101189.75;4552790;28;20036;-62
2023/05/04 07:21:11;;;;;;;1.27;0.90;;;;;;;21.64;33.37;101184.47;4555445;28;20111;-63
2023/05/04 07:23:21;;;;;;;0.90;0.90;;;;;;;21.64;33.53;101186.50;4535484;28;20791;-63
2023/05/04 07:25:32;;;;;;;1.40;1.00;;;;;;;21.63;33.85;101179.06;4518309;28;20044;-63
2023/05/04 07:27:43;;;;;;;1.20;1.10;;;;;;;21.59;33.78;101176.09;4532732;28;20363;-63
2023/05/04 07:29:55;;;;;;;1.10;1.00;;;;;;;21.62;33.88;101175.38;4539245;28;20060;-63
2023/05/04 07:32:05;;;;;;;1.15;1.00;;;;;;;21.63;33.42;101177.03;4551620;28;20040;-63
2023/05/04 07:34:16;;;;;;;1.30;1.20;;;;;;;21.60;33.58;101169.16;4517151;28;20545;-63
2023/05/04 07:36:26;;;;;;;1.92;1.20;;;;;;;21.63;33.37;101174.16;4552427;28;20036;-65
2023/05/04 07:38:37;;;;;;;1.08;1.00;;;;;;;21.58;33.77;101162.09;4525092;28;20033;-63
2023/05/04 07:40:47;;;;;;;1.60;1.05;;;;;;;21.63;33.29;101173.31;4550294;28;20039;-63
2023/05/04 07:42:58;;;;;;;1.52;1.10;;;;;;;21.62;33.90;101172.50;4553429;28;20675;-63
2023/05/04 07:45:08;;;;;;;1.20;1.10;;;;;;;21.63;33.37;101174.16;4538382;28;20040;-63
2023/05/04 07:47:19;;;;;;;0.90;0.90;;;;;;;21.60;34.08;101177.75;4553208;28;20118;-63
2023/05/04 07:49:29;;;;;;;1.20;1.10;;;;;;;21.63;33.98;101174.16;4553800;28;20040;-63
2023/05/04 07:51:40;;;;;;;1.52;1.00;;;;;;;21.57;34.22;101166.16;4553786;28;20028;-63
2023/05/04 07:53:50;;;;;;;1.38;1.00;;;;;;;21.61;34.09;101167.13;4550809;27;20041;-63
2023/05/04 07:56:10;;;;;;;1.75;1.10;;;;;;;21.58;34.58;101165.78;4551885;28;20028;-63
2023/05/04 07:58:20;;;;;;;1.10;1.00;;;;;;;21.62;33.82;101163.88;4551912;28;20038;-63
2023/05/04 08:00:30;;;;;;;1.23;1.10;;;;;;;21.63;33.90;101165.53;4551084;28;20036;-63
2023/05/04 08:02:41;;;;;;;1.17;1.08;;;;;;;21.61;34.12;101165.06;4531000;28;20083;-63
2023/05/04 08:04:51;;;;;;;1.20;1.10;;;;;;;21.63;34.01;101159.81;4550168;28;20086;-63
2023/05/04 08:07:02;;;;;;;1.13;1.02;;;;;;;21.57;33.81;101161.25;4550612;28;20059;-62
2023/05/04 08:09:12;;;;;;;0.98;0.90;;;;;;;21.60;33.85;101154.78;4551419;28;20112;-63
2023/05/04 08:11:23;;;;;;;1.73;1.10;;;;;;;21.61;33.86;101153.56;4552588;28;20108;-63
2023/05/04 08:13:33;;;;;;;1.20;0.90;;;;;;;21.62;34.79;101152.41;4551285;28;20033;-63
2023/05/04 08:15:44;;;;;;;1.20;1.10;;;;;;;21.64;34.48;101152.03;4551669;28;20068;-63
2023/05/04 08:17:54;;;;;;;1.48;1.10;;;;;;;21.62;34.90;101149.53;4551610;28;20642;-63
2023/05/04 08:20:09;;;;;;;1.35;1.10;;;;;;;21.58;34.58;101133.38;4552506;28;20119;-63
2023/05/04 08:22:20;;;;;;;1.10;1.00;;;;;;;21.64;33.83;101141.38;4553713;28;20628;-63
2023/05/04 08:24:30;;;;;;;1.20;1.10;;;;;;;21.64;34.05;101138.50;4534797;28;20164;-63
2023/05/04 08:26:40;;;;;;;1.02;1.00;;;;;;;21.63;33.68;101139.69;4552170;28;20032;-63
2023/05/04 08:28:51;;;;;;;1.02;1.02;;;;;;;21.65;34.01;101140.19;4554123;28;20488;-63
2023/05/04 08:31:02;;;;;;;1.55;1.00;;;;;;;21.64;34.48;101132.78;4551787;28;20029;-63
2023/05/04 08:33:13;;;;;;;1.52;1.00;;;;;;;21.66;34.00;101138.97;4550342;28;20681;-63
2023/05/04 08:35:26;;;;;;;0.95;0.93;;;;;;;21.66;34.26;101138.97;4536689;28;20060;-63
2023/05/04 08:37:36;;;;;;;1.10;1.00;;;;;;;21.42;34.81;101095.91;4553856;28;20584;-63
2023/05/04 08:39:47;;;;;;;1.30;1.20;;;;;;;21.65;34.88;101134.44;4512640;28;20037;-64
2023/05/04 08:41:57;;;;;;;1.77;1.10;;;;;;;21.66;34.22;101132.41;4549985;28;20044;-65
2023/05/04 08:44:09;;;;;;;1.20;1.10;;;;;;;21.68;34.69;101132.84;4548512;28;20033;-64
2023/05/04 08:46:20;;;;;;;1.30;0.98;;;;;;;21.66;34.77;101127.47;4551957;28;20040;-64
2023/05/04 08:48:32;;;;;;;1.27;1.00;;;;;;;21.67;34.77;101136.94;4552812;28;20082;-63
2023/05/04 08:50:43;;;;;;;1.13;1.10;;;;;;;21.57;34.40;101123.91;4551380;28;20582;-63
2023/05/04 08:52:54;;;;;;;1.10;1.00;;;;;;;21.67;34.60;101140.66;4552501;28;20242;-63
2023/05/04 08:55:06;;;;;;;1.23;1.00;;;;;;;21.65;34.68;101127.84;4550754;28;21172;-63
2023/05/04 08:57:16;;;;;;;1.67;1.27;;;;;;;21.68;33.94;101138.59;4540575;28;20041;-63
2023/05/04 08:59:29;;;;;;;1.08;0.95;;;;;;;21.62;34.45;101128.56;4552180;28;20040;-63
2023/05/04 09:01:40;;;;;;;1.20;1.10;;;;;;;21.66;34.35;101127.47;4551292;28;20037;-63
2023/05/04 09:03:51;;;;;;;0.93;0.90;;;;;;;21.68;34.48;101130.84;4550688;28;20110;-63
2023/05/04 09:06:02;;;;;;;1.20;1.00;;;;;;;21.69;34.01;101123.88;4549452;28;21035;-63
2023/05/04 09:08:14;;;;;;;1.13;1.00;;;;;;;21.69;34.00;101123.88;4550415;28;20041;-63
2023/05/04 09:10:24;;;;;;;1.02;1.02;;;;;;;21.69;33.90;101123.88;4549844;28;20847;-63
2023/05/04 09:12:36;;;;;;;1.48;0.98;;;;;;;21.66;34.14;101113.09;4551371;28;20068;-62
2023/05/04 09:14:46;;;;;;;1.48;1.10;;;;;;;21.64;34.16;101109.78;4534695;28;20481;-63
2023/05/04 09:16:57;;;;;;;0.90;0.90;;;;;;;21.66;34.03;101112.28;4550869;28;20072;-63
2023/05/04 09:19:18;;;;;;;0.90;0.90;;;;;;;21.69;34.25;101121.00;4551685;28;20024;-63
2023/05/04 09:21:29;;;;;;;1.20;1.10;;;;;;;21.70;33.61;101114.06;4549522;28;20059;-63
2023/05/04 09:23:47;;;;;;;1.33;1.02;;;;;;;21.71;33.93;101120.63;4533293;28;20047;-63
2023/05/04 09:25:58;;;;;;;1.20;1.10;;;;;;;21.68;34.01;101110.72;4533088;28;21025;-63
2023/05/04 09:28:08;;;;;;;1.10;1.00;;;;;;;21.69;33.58;101105.81;4550168;28;20045;-63
2023/05/04 09:30:22;;;;;;;1.45;1.13;;;;;;;21.71;34.11;101110.00;4534577;28;20758;-63
2023/05/04 09:32:45;;;;;;;1.10;1.00;;;;;;;21.71;33.37;101100.53;4536730;28;20095;-63
2023/05/04 09:34:56;;;;;;;1.25;1.02;;;;;;;21.66;34.03;101101.63;4552052;28;20159;-63
2023/05/04 09:37:07;;;;;;;1.10;1.00;;;;;;;21.71;34.36;101104.25;4549888;28;20545;-63
2023/05/04 09:39:18;;;;;;;1.33;1.00;;;;;;;21.58;34.75;101078.78;4552825;28;20028;-63
2023/05/04 09:41:32;;;;;;;1.27;1.15;;;;;;;21.71;34.47;101094.78;4550217;28;20033;-63
2023/05/04 09:43:43;;;;;;;1.40;1.10;;;;;;;21.72;34.96;101105.91;4550369;28;20582;-63
2023/05/04 09:45:54;;;;;;;1.55;1.13;;;;;;;21.71;34.46;101098.50;4551688;28;20036;-63
2023/05/04 09:48:16;;;;;;;1.20;1.10;;;;;;;21.71;34.32;101092.75;4550539;28;20033;-63
2023/05/04 09:50:28;;;;;;;1.55;1.15;;;;;;;21.71;34.34;101092.75;4554888;28;20368;-63
2023/05/04 09:52:41;;;;;;;1.45;1.15;;;;;;;21.72;34.36;101088.66;4535171;28;20044;-63
2023/05/04 09:54:52;;;;;;;1.40;1.20;;;;;;;21.71;34.28;101089.88;4554314;27;20665;-63
2023/05/04 09:57:12;;;;;;;1.55;1.20;;;;;;;21.73;34.67;101090.38;4554651;28;20040;-63
2023/05/04 09:59:29;;;;;;;1.45;1.30;;;;;;;21.73;34.51;101090.38;4553159;28;20033;-63
2023/05/04 10:01:39;;;;;;;1.40;1.20;;;;;;;21.68;34.64;101075.41;4554463;28;20020;-63
2023/05/04 10:03:52;;;;;;;2.13;1.35;;;;;;;21.73;35.20;101089.53;4555763;27;20040;-63
2023/05/04 10:06:04;;;;;;;1.80;1.20;;;;;;;21.74;34.76;101085.47;4555581;28;20036;-63
2023/05/04 10:08:16;;;;;;;1.60;1.10;;;;;;;21.74;34.89;101086.28;4554007;28;20278;-63
2023/05/04 10:10:26;;;;;;;1.92;1.00;;;;;;;21.72;35.67;101070.63;4552622;28;20048;-63